createdAt,value
2019-06-26T00:00:25.207Z,24.40
2019-06-26T00:02:52.115Z,24.40
2019-06-26T00:05:18.896Z,24.40
2019-06-26T00:07:45.543Z,24.20
2019-06-26T00:10:12.818Z,24.40
2019-06-26T00:12:39.682Z,24.50
2019-06-26T00:15:07.074Z,24.30
2019-06-26T00:17:35.106Z,24.30
2019-06-26T00:20:02.826Z,24.20
2019-06-26T00:22:29.471Z,24.20
2019-06-26T00:24:56.160Z,23.90
2019-06-26T00:27:23.286Z,23.90
2019-06-26T00:29:49.928Z,24.00
2019-06-26T00:32:16.526Z,24.00
2019-06-26T00:34:43.296Z,23.80
2019-06-26T00:37:10.150Z,23.60
2019-06-26T00:39:36.859Z,23.80
2019-06-26T00:42:07.176Z,23.60
2019-06-26T00:44:33.770Z,23.40
2019-06-26T00:47:00.488Z,23.60
2019-06-26T00:49:27.397Z,23.60
2019-06-26T00:51:54.103Z,23.60
2019-06-26T00:54:20.834Z,23.50
2019-06-26T00:56:47.644Z,23.50
2019-06-26T00:59:14.380Z,23.40
2019-06-26T01:01:41.554Z,23.40
2019-06-26T01:04:10.078Z,23.50
2019-06-26T01:06:43.987Z,23.40
2019-06-26T01:09:12.256Z,23.40
2019-06-26T01:11:39.143Z,23.40
2019-06-26T01:14:05.855Z,23.30
2019-06-26T01:16:32.471Z,23.10
2019-06-26T01:18:59.153Z,23.10
2019-06-26T01:21:25.875Z,23.20
2019-06-26T01:23:52.557Z,23.20
2019-06-26T01:26:19.192Z,23.20
2019-06-26T01:28:45.853Z,23.20
2019-06-26T01:31:12.511Z,23.20
2019-06-26T01:33:41.082Z,23.00
2019-06-26T01:36:07.849Z,22.90
2019-06-26T01:38:34.471Z,22.80
2019-06-26T01:41:01.923Z,22.80
2019-06-26T01:43:37.219Z,23.00
2019-06-26T01:46:05.242Z,23.00
2019-06-26T01:48:36.908Z,23.00
2019-06-26T01:51:04.705Z,23.00
2019-06-26T01:53:37.856Z,22.90
2019-06-26T01:56:04.835Z,22.60
2019-06-26T01:58:31.568Z,22.50
2019-06-26T02:00:59.214Z,22.50
2019-06-26T02:03:28.408Z,22.40
2019-06-26T02:05:58.329Z,22.30
2019-06-26T02:08:26.640Z,22.40
2019-06-26T02:10:54.472Z,22.30
2019-06-26T02:13:21.352Z,22.40
2019-06-26T02:15:51.015Z,22.30
2019-06-26T02:18:35.484Z,22.20
2019-06-26T02:21:02.969Z,22.20
2019-06-26T02:23:30.213Z,22.00
2019-06-26T02:25:57.725Z,21.80
2019-06-26T02:28:24.854Z,21.70
2019-06-26T02:30:54.092Z,21.90
2019-06-26T02:33:22.863Z,21.80
2019-06-26T02:35:51.923Z,21.90
2019-06-26T02:38:20.427Z,21.80
2019-06-26T02:41:00.934Z,21.70
2019-06-26T02:43:27.800Z,21.40
2019-06-26T02:45:54.424Z,21.50
2019-06-26T02:48:21.042Z,21.60
2019-06-26T02:50:50.319Z,21.50
2019-06-26T02:53:16.910Z,21.80
2019-06-26T02:55:43.803Z,21.90
2019-06-26T02:58:10.669Z,22.00
2019-06-26T03:00:37.378Z,21.90
2019-06-26T03:03:04.069Z,21.80
2019-06-26T03:05:30.678Z,21.60
2019-06-26T03:07:57.266Z,21.50
2019-06-26T03:10:23.884Z,21.50
2019-06-26T03:12:50.623Z,21.40
2019-06-26T03:15:17.718Z,21.40
2019-06-26T03:17:54.727Z,21.60
2019-06-26T03:20:15.293Z,21.60
2019-06-26T03:22:41.903Z,21.50
2019-06-26T03:25:08.849Z,21.60
2019-06-26T03:27:35.690Z,21.70
2019-06-26T03:30:04.972Z,21.90
2019-06-26T03:32:31.758Z,21.70
2019-06-26T03:34:58.355Z,21.60
2019-06-26T03:37:24.966Z,21.60
2019-06-26T03:39:51.812Z,21.60
2019-06-26T03:42:21.234Z,21.50
2019-06-26T03:44:50.070Z,21.50
2019-06-26T03:47:16.851Z,21.40
2019-06-26T03:49:44.632Z,21.20
2019-06-26T03:52:25.481Z,21.10
2019-06-26T03:54:52.134Z,21.10
2019-06-26T03:57:19.255Z,20.90
2019-06-26T03:59:46.044Z,21.00
2019-06-26T04:02:12.667Z,21.00
2019-06-26T04:04:39.242Z,20.90
2019-06-26T04:07:05.853Z,20.60
2019-06-26T04:09:32.474Z,20.20
2019-06-26T04:11:59.323Z,20.20
2019-06-26T04:14:26.087Z,20.40
2019-06-26T04:16:52.781Z,20.70
2019-06-26T04:19:19.363Z,20.90
2019-06-26T04:21:45.990Z,21.00
2019-06-26T04:24:12.621Z,20.90
2019-06-26T04:26:39.214Z,20.70
2019-06-26T04:29:05.977Z,20.80
2019-06-26T04:31:32.584Z,20.70
2019-06-26T04:33:59.227Z,20.60
2019-06-26T04:36:25.837Z,20.80
2019-06-26T04:38:52.763Z,21.10
2019-06-26T04:41:19.687Z,21.20
2019-06-26T04:43:46.350Z,21.40
2019-06-26T04:46:13.056Z,21.40
2019-06-26T04:48:39.769Z,21.10
2019-06-26T04:51:06.509Z,21.20
2019-06-26T04:53:34.494Z,21.20
2019-06-26T04:56:01.159Z,21.20
2019-06-26T04:58:27.711Z,21.10
2019-06-26T05:00:54.513Z,21.00
2019-06-26T05:03:21.326Z,20.90
2019-06-26T05:05:48.444Z,21.00
2019-06-26T05:08:15.119Z,20.80
2019-06-26T05:10:41.746Z,20.70
2019-06-26T05:13:08.819Z,20.70
2019-06-26T05:15:35.430Z,20.80
2019-06-26T05:18:02.075Z,20.90
2019-06-26T05:20:28.695Z,21.00
2019-06-26T05:22:55.392Z,21.20
2019-06-26T05:25:22.156Z,21.20
2019-06-26T05:27:48.874Z,21.00
2019-06-26T05:30:16.192Z,21.20
2019-06-26T05:32:42.774Z,21.10
2019-06-26T05:35:10.000Z,20.90
2019-06-26T05:37:36.833Z,20.70
2019-06-26T05:40:07.252Z,20.70
2019-06-26T05:42:33.857Z,20.90
2019-06-26T05:45:00.460Z,21.10
2019-06-26T05:47:27.323Z,21.00
2019-06-26T05:49:53.993Z,21.30
2019-06-26T05:52:20.694Z,21.20
2019-06-26T05:54:47.456Z,21.30
2019-06-26T05:57:14.107Z,21.10
2019-06-26T05:59:40.837Z,20.80
2019-06-26T06:02:08.641Z,20.90
2019-06-26T06:04:35.375Z,21.00
2019-06-26T06:07:04.024Z,21.20
2019-06-26T06:09:30.892Z,21.30
2019-06-26T06:11:57.609Z,21.00
2019-06-26T06:14:24.333Z,21.20
2019-06-26T06:16:50.957Z,21.40
2019-06-26T06:19:17.795Z,21.50
2019-06-26T06:21:44.726Z,21.50
2019-06-26T06:24:11.546Z,21.50
2019-06-26T06:26:38.318Z,21.50
2019-06-26T06:29:04.978Z,21.50
2019-06-26T06:31:31.572Z,21.50
2019-06-26T06:33:58.391Z,21.60
2019-06-26T06:36:25.197Z,21.50
2019-06-26T06:38:51.949Z,21.00
2019-06-26T06:41:18.573Z,20.70
2019-06-26T06:43:45.270Z,21.00
2019-06-26T06:46:11.900Z,21.10
2019-06-26T06:48:38.818Z,21.00
2019-06-26T06:51:05.587Z,21.10
2019-06-26T06:53:32.367Z,21.30
2019-06-26T06:55:59.094Z,21.70
2019-06-26T06:58:30.154Z,21.80
2019-06-26T07:00:57.345Z,21.70
2019-06-26T07:03:25.833Z,21.40
2019-06-26T07:05:53.479Z,21.30
2019-06-26T07:08:22.759Z,21.20
2019-06-26T07:10:51.825Z,21.20
2019-06-26T07:13:20.772Z,21.40
2019-06-26T07:15:50.095Z,21.70
2019-06-26T07:18:19.528Z,21.80
2019-06-26T07:20:52.360Z,21.70
2019-06-26T07:23:22.776Z,21.80
2019-06-26T07:25:52.294Z,21.90
2019-06-26T07:28:21.171Z,21.70
2019-06-26T07:30:49.989Z,21.70
2019-06-26T07:33:19.127Z,21.80
2019-06-26T07:35:46.350Z,21.70
2019-06-26T07:38:14.943Z,21.60
2019-06-26T07:40:43.860Z,21.50
2019-06-26T07:43:16.336Z,21.40
2019-06-26T07:45:42.482Z,21.50
2019-06-26T07:48:12.739Z,21.50
2019-06-26T07:50:42.829Z,21.70
2019-06-26T07:53:12.105Z,21.90
2019-06-26T07:55:43.672Z,22.00
2019-06-26T07:58:14.518Z,22.10
2019-06-26T08:00:43.301Z,22.00
2019-06-26T08:03:11.567Z,21.80
2019-06-26T08:05:42.652Z,21.30
2019-06-26T08:08:14.205Z,21.40
2019-06-26T08:10:40.740Z,21.40
2019-06-26T08:13:10.321Z,21.40
2019-06-26T08:15:39.242Z,21.50
2019-06-26T08:18:07.494Z,21.40
2019-06-26T08:20:51.960Z,21.60
2019-06-26T08:23:11.572Z,21.90
2019-06-26T08:25:40.363Z,22.30
2019-06-26T08:28:09.160Z,22.50
2019-06-26T08:30:41.677Z,22.70
2019-06-26T08:33:09.516Z,22.70
2019-06-26T08:35:39.794Z,22.80
2019-06-26T08:38:15.480Z,22.70
2019-06-26T08:40:41.066Z,22.90
2019-06-26T08:43:09.479Z,22.80
2019-06-26T08:45:36.611Z,22.80
2019-06-26T08:48:17.306Z,22.90
2019-06-26T08:50:32.880Z,23.00
2019-06-26T08:52:59.716Z,23.20
2019-06-26T08:55:27.600Z,23.10
2019-06-26T08:57:55.426Z,23.20
2019-06-26T09:00:24.451Z,23.20
2019-06-26T09:02:51.952Z,23.20
2019-06-26T09:05:18.774Z,23.60
2019-06-26T09:07:46.996Z,23.60
2019-06-26T09:10:16.302Z,23.60
2019-06-26T09:12:44.747Z,23.70
2019-06-26T09:15:12.059Z,23.70
2019-06-26T09:17:39.982Z,23.80
2019-06-26T09:20:08.016Z,23.60
2019-06-26T09:22:36.940Z,23.50
2019-06-26T09:25:20.933Z,23.60
2019-06-26T09:27:36.233Z,23.70
2019-06-26T09:30:08.144Z,23.70
2019-06-26T09:32:35.196Z,23.70
2019-06-26T09:35:03.433Z,24.00
2019-06-26T09:37:31.530Z,23.70
2019-06-26T09:40:00.577Z,23.20
2019-06-26T09:42:31.281Z,23.20
2019-06-26T09:44:58.289Z,23.30
2019-06-26T09:47:30.835Z,23.20
2019-06-26T09:50:00.902Z,23.60
2019-06-26T09:52:29.543Z,24.00
2019-06-26T09:54:57.731Z,24.00
2019-06-26T09:57:25.811Z,24.30
2019-06-26T09:59:52.483Z,24.20
2019-06-26T10:02:19.704Z,24.10
2019-06-26T10:04:46.363Z,24.20
2019-06-26T10:07:13.249Z,24.20
2019-06-26T10:09:40.051Z,24.30
2019-06-26T10:12:07.379Z,24.10
2019-06-26T10:14:46.459Z,23.90
2019-06-26T10:17:02.556Z,24.00
2019-06-26T10:19:29.557Z,24.50
2019-06-26T10:21:56.203Z,24.70
2019-06-26T10:24:23.149Z,25.00
2019-06-26T10:26:49.858Z,25.30
2019-06-26T10:29:16.690Z,25.50
2019-06-26T10:31:43.464Z,25.50
2019-06-26T10:34:10.527Z,25.70
2019-06-26T10:36:37.262Z,26.00
2019-06-26T10:39:06.252Z,26.10
2019-06-26T10:41:33.499Z,26.20
2019-06-26T10:44:01.693Z,26.70
2019-06-26T10:46:29.017Z,26.10
2019-06-26T10:49:00.219Z,25.90
2019-06-26T10:51:31.231Z,25.70
2019-06-26T10:54:00.585Z,25.70
2019-06-26T10:56:28.900Z,25.70
2019-06-26T10:59:06.391Z,26.10
2019-06-26T11:01:34.467Z,26.00
2019-06-26T11:04:03.081Z,26.00
2019-06-26T11:06:32.074Z,26.60
2019-06-26T11:09:02.398Z,26.80
2019-06-26T11:11:34.349Z,26.80
2019-06-26T11:14:03.050Z,27.20
2019-06-26T11:16:37.040Z,27.10
2019-06-26T11:19:06.003Z,27.30
2019-06-26T11:21:34.327Z,27.20
2019-06-26T11:24:13.121Z,27.10
2019-06-26T11:26:41.517Z,27.10
2019-06-26T11:29:10.788Z,27.20
2019-06-26T11:31:46.103Z,27.00
2019-06-26T11:34:17.006Z,27.10
2019-06-26T11:37:02.382Z,27.20
2019-06-26T11:39:17.827Z,26.80
2019-06-26T11:41:45.967Z,26.80
2019-06-26T11:44:13.980Z,26.80
2019-06-26T11:46:41.942Z,27.00
2019-06-26T11:49:11.774Z,27.10
2019-06-26T11:51:42.313Z,27.20
2019-06-26T11:54:09.096Z,27.50
2019-06-26T11:56:36.812Z,27.50
2019-06-26T11:59:09.726Z,27.80
2019-06-26T12:01:40.671Z,27.90
2019-06-26T12:04:10.174Z,28.10
2019-06-26T12:06:41.156Z,28.00
2019-06-26T12:09:12.334Z,28.10
2019-06-26T12:11:40.679Z,27.80
2019-06-26T12:14:08.738Z,28.00
2019-06-26T12:16:36.746Z,28.10
2019-06-26T12:19:05.952Z,28.10
2019-06-26T12:21:33.082Z,28.00
2019-06-26T12:24:00.799Z,28.20
2019-06-26T12:26:27.638Z,28.00
2019-06-26T12:28:54.312Z,27.80
2019-06-26T12:31:21.154Z,28.00
2019-06-26T12:33:47.882Z,28.20
2019-06-26T12:36:14.588Z,28.20
2019-06-26T12:38:41.303Z,28.30
2019-06-26T12:41:07.919Z,28.40
2019-06-26T12:43:34.524Z,28.10
2019-06-26T12:46:01.847Z,28.00
2019-06-26T12:48:28.486Z,27.70
2019-06-26T12:50:55.106Z,28.00
2019-06-26T12:53:22.728Z,28.10
2019-06-26T12:55:51.738Z,28.40
2019-06-26T12:58:21.717Z,28.70
2019-06-26T13:00:49.395Z,28.60
2019-06-26T13:03:17.390Z,28.50
2019-06-26T13:05:45.616Z,28.90
2019-06-26T13:08:13.170Z,29.20
2019-06-26T13:10:49.440Z,29.10
2019-06-26T13:13:09.034Z,29.10
2019-06-26T13:15:36.923Z,29.00
2019-06-26T13:18:04.575Z,28.90
2019-06-26T13:20:51.600Z,28.90
2019-06-26T13:23:08.973Z,28.70
2019-06-26T13:25:36.165Z,28.70
2019-06-26T13:28:03.039Z,28.70
2019-06-26T13:30:38.256Z,28.70
2019-06-26T13:33:05.978Z,28.70
2019-06-26T13:35:35.068Z,29.20
2019-06-26T13:38:05.868Z,29.30
2019-06-26T13:40:35.572Z,29.10
2019-06-26T13:43:02.752Z,29.20
2019-06-26T13:45:30.957Z,29.00
2019-06-26T13:48:07.685Z,28.70
2019-06-26T13:50:32.786Z,28.80
2019-06-26T13:53:01.521Z,29.00
2019-06-26T13:55:30.298Z,29.00
2019-06-26T13:57:57.570Z,29.20
2019-06-26T14:00:24.770Z,29.30
2019-06-26T14:02:54.442Z,29.20
2019-06-26T14:05:29.366Z,29.30
2019-06-26T14:08:02.142Z,29.40
2019-06-26T14:10:30.388Z,29.40
2019-06-26T14:13:03.682Z,29.40
2019-06-26T14:15:32.220Z,29.40
2019-06-26T14:18:05.210Z,29.20
2019-06-26T14:20:41.555Z,29.00
2019-06-26T14:23:09.676Z,29.00
2019-06-26T14:25:36.478Z,28.90
2019-06-26T14:28:11.070Z,28.80
2019-06-26T14:30:43.361Z,29.10
2019-06-26T14:33:10.022Z,29.20
2019-06-26T14:35:36.742Z,29.20
2019-06-26T14:38:04.620Z,29.30
2019-06-26T14:40:31.769Z,29.30
2019-06-26T14:42:58.560Z,29.50
2019-06-26T14:45:25.424Z,29.50
2019-06-26T14:48:05.438Z,29.60
2019-06-26T14:50:32.059Z,29.50
2019-06-26T14:52:59.050Z,29.80
2019-06-26T14:55:25.716Z,29.70
2019-06-26T14:57:52.311Z,29.80
2019-06-26T15:00:19.479Z,30.10
2019-06-26T15:02:46.198Z,29.90
2019-06-26T15:05:13.262Z,29.30
2019-06-26T15:07:39.998Z,29.20
2019-06-26T15:10:07.601Z,29.40
2019-06-26T15:12:34.455Z,29.40
2019-06-26T15:15:01.207Z,29.30
2019-06-26T15:17:27.936Z,29.30
2019-06-26T15:19:54.644Z,29.00
2019-06-26T15:22:21.405Z,29.00
2019-06-26T15:24:48.165Z,28.80
2019-06-26T15:27:14.895Z,28.80
2019-06-26T15:29:41.629Z,29.00
2019-06-26T15:32:08.300Z,29.00
2019-06-26T15:34:35.026Z,28.90
2019-06-26T15:37:01.825Z,28.70
2019-06-26T15:39:28.514Z,28.60
2019-06-26T15:41:55.224Z,28.80
2019-06-26T15:44:22.214Z,29.10
2019-06-26T15:46:49.349Z,29.00
2019-06-26T15:49:16.530Z,28.90
2019-06-26T15:51:43.374Z,28.70
2019-06-26T15:54:10.172Z,28.60
2019-06-26T15:56:36.840Z,28.50
2019-06-26T15:59:03.533Z,28.50
2019-06-26T16:01:30.370Z,28.80
2019-06-26T16:03:57.386Z,28.70
2019-06-26T16:06:24.310Z,28.90
2019-06-26T16:08:51.204Z,29.10
2019-06-26T16:11:17.888Z,28.90
2019-06-26T16:13:44.649Z,28.60
2019-06-26T16:16:11.389Z,28.70
2019-06-26T16:18:43.287Z,28.90
2019-06-26T16:21:09.896Z,28.90
2019-06-26T16:23:36.586Z,29.10
2019-06-26T16:26:03.557Z,28.80
2019-06-26T16:28:30.265Z,28.60
2019-06-26T16:30:56.893Z,28.70
2019-06-26T16:33:23.485Z,28.70
2019-06-26T16:35:50.049Z,28.80
2019-06-26T16:38:16.683Z,28.80
2019-06-26T16:40:43.641Z,28.60
2019-06-26T16:43:10.397Z,28.30
2019-06-26T16:45:37.180Z,28.10
2019-06-26T16:48:04.088Z,28.10
2019-06-26T16:50:30.837Z,28.10
2019-06-26T16:52:57.649Z,28.00
2019-06-26T16:55:24.282Z,28.00
2019-06-26T16:57:51.284Z,28.10
2019-06-26T17:00:18.336Z,28.10
2019-06-26T17:02:45.074Z,28.10
2019-06-26T17:05:14.014Z,28.10
2019-06-26T17:07:40.876Z,28.10
2019-06-26T17:10:08.447Z,28.00
2019-06-26T17:12:35.225Z,28.00
2019-06-26T17:15:07.213Z,28.00
2019-06-26T17:17:34.076Z,27.90
2019-06-26T17:20:00.907Z,27.80
2019-06-26T17:22:27.571Z,27.50
2019-06-26T17:24:54.231Z,27.60
2019-06-26T17:27:20.958Z,27.60
2019-06-26T17:29:47.727Z,27.50
2019-06-26T17:32:14.494Z,27.40
2019-06-26T17:34:41.179Z,27.30
2019-06-26T17:37:07.873Z,27.10
2019-06-26T17:39:35.005Z,26.90
2019-06-26T17:42:01.765Z,27.00
2019-06-26T17:44:28.702Z,27.40
2019-06-26T17:46:55.534Z,27.40
2019-06-26T17:49:22.176Z,27.40
2019-06-26T17:51:48.986Z,27.40
2019-06-26T17:54:15.674Z,27.10
2019-06-26T17:56:42.455Z,27.00
2019-06-26T17:59:09.211Z,26.90
2019-06-26T18:01:36.003Z,26.70
2019-06-26T18:04:05.978Z,26.60
2019-06-26T18:06:32.454Z,26.60
2019-06-26T18:08:59.181Z,26.60
2019-06-26T18:11:25.826Z,26.80
2019-06-26T18:13:53.613Z,27.00
2019-06-26T18:16:20.247Z,26.90
2019-06-26T18:18:47.005Z,26.90
2019-06-26T18:21:13.730Z,27.00
2019-06-26T18:23:40.379Z,26.90
2019-06-26T18:26:12.948Z,26.90
2019-06-26T18:28:35.512Z,26.60
2019-06-26T18:31:02.474Z,26.60
2019-06-26T18:33:29.330Z,26.70
2019-06-26T18:35:56.019Z,26.60
2019-06-26T18:38:22.625Z,26.40
2019-06-26T18:40:49.336Z,26.30
2019-06-26T18:43:16.280Z,26.40
2019-06-26T18:45:43.101Z,26.50
2019-06-26T18:48:09.738Z,26.60
2019-06-26T18:50:36.402Z,26.50
2019-06-26T18:53:03.342Z,26.30
2019-06-26T18:55:30.199Z,26.00
2019-06-26T18:57:56.892Z,26.10
2019-06-26T19:00:23.795Z,26.00
2019-06-26T19:02:50.452Z,26.10
2019-06-26T19:05:17.441Z,25.90
2019-06-26T19:07:45.419Z,25.90
2019-06-26T19:10:12.458Z,25.90
2019-06-26T19:12:39.305Z,26.00
2019-06-26T19:15:06.563Z,25.90
2019-06-26T19:17:33.462Z,25.80
2019-06-26T19:20:00.138Z,25.70
2019-06-26T19:22:26.773Z,25.60
2019-06-26T19:24:53.428Z,25.70
2019-06-26T19:27:20.278Z,25.70
2019-06-26T19:29:48.021Z,25.60
2019-06-26T19:32:14.663Z,25.50
2019-06-26T19:34:41.361Z,25.30
2019-06-26T19:37:08.356Z,25.10
2019-06-26T19:39:35.219Z,24.90
2019-06-26T19:42:02.836Z,24.90
2019-06-26T19:44:29.615Z,25.00
2019-06-26T19:46:56.222Z,24.90
2019-06-26T19:49:23.989Z,24.80
2019-06-26T19:51:50.810Z,24.90
2019-06-26T19:54:26.971Z,24.70
2019-06-26T19:56:49.315Z,24.80
2019-06-26T19:59:17.987Z,24.70
2019-06-26T20:01:44.601Z,24.80
2019-06-26T20:04:11.510Z,24.90
2019-06-26T20:06:38.494Z,24.90
2019-06-26T20:09:05.687Z,24.90
2019-06-26T20:11:32.980Z,24.70
2019-06-26T20:13:59.769Z,24.50
2019-06-26T20:16:26.418Z,24.30
2019-06-26T20:18:53.197Z,24.20
2019-06-26T20:21:21.436Z,24.00
2019-06-26T20:23:48.328Z,23.90
2019-06-26T20:26:15.275Z,24.00
2019-06-26T20:28:42.023Z,24.00
2019-06-26T20:31:09.114Z,24.00
2019-06-26T20:33:35.852Z,24.00
2019-06-26T20:36:13.932Z,23.80
2019-06-26T20:38:48.756Z,23.70
2019-06-26T20:41:17.500Z,23.60
2019-06-26T20:43:45.773Z,23.50
2019-06-26T20:46:15.964Z,23.60
2019-06-26T20:48:45.065Z,23.60
2019-06-26T20:51:13.162Z,23.80
2019-06-26T20:53:42.506Z,23.70
2019-06-26T20:56:13.476Z,23.60
2019-06-26T20:58:42.052Z,23.50
2019-06-26T21:01:10.463Z,23.30
2019-06-26T21:03:37.644Z,23.20
2019-06-26T21:06:09.339Z,23.20
2019-06-26T21:08:36.609Z,23.20
2019-06-26T21:11:04.679Z,23.30
2019-06-26T21:13:31.909Z,23.20
2019-06-26T21:16:00.296Z,23.00
2019-06-26T21:18:29.460Z,23.00
2019-06-26T21:20:58.476Z,23.00
2019-06-26T21:23:26.368Z,22.80
2019-06-26T21:25:54.256Z,22.90
2019-06-26T21:28:21.946Z,23.10
2019-06-26T21:30:54.675Z,23.10
2019-06-26T21:33:24.709Z,23.10
2019-06-26T21:35:52.639Z,23.10
2019-06-26T21:38:19.956Z,23.20
2019-06-26T21:40:47.988Z,22.90
2019-06-26T21:43:14.708Z,22.80
2019-06-26T21:45:42.187Z,22.60
2019-06-26T21:48:08.919Z,22.60
2019-06-26T21:50:41.527Z,22.60
2019-06-26T21:53:11.301Z,22.50
2019-06-26T21:55:40.066Z,22.20
2019-06-26T21:58:27.210Z,22.20
2019-06-26T22:01:16.303Z,22.20
2019-06-26T22:04:03.002Z,22.10
2019-06-26T22:06:37.565Z,22.10
2019-06-26T22:09:13.836Z,22.20
2019-06-26T22:11:47.484Z,22.20
2019-06-26T22:14:15.016Z,22.20
2019-06-26T22:16:42.704Z,22.20
2019-06-26T22:19:11.372Z,22.10
2019-06-26T22:21:40.087Z,22.20
2019-06-26T22:24:09.367Z,21.70
2019-06-26T22:26:46.729Z,21.80
2019-06-26T22:29:16.168Z,21.70
2019-06-26T22:31:45.770Z,21.80
2019-06-26T22:34:14.306Z,21.70
2019-06-26T22:36:51.054Z,21.70
2019-06-26T22:39:14.988Z,21.50
2019-06-26T22:41:44.130Z,21.50
2019-06-26T22:44:12.982Z,21.30
2019-06-26T22:46:39.750Z,21.20
2019-06-26T22:49:07.195Z,21.30
2019-06-26T22:51:34.382Z,21.30
2019-06-26T22:54:04.808Z,21.20
2019-06-26T22:56:33.175Z,21.20
2019-06-26T22:59:00.348Z,21.30
2019-06-26T23:01:29.051Z,21.20
2019-06-26T23:03:56.065Z,21.00
2019-06-26T23:06:23.187Z,21.00
2019-06-26T23:08:53.260Z,21.00
2019-06-26T23:11:22.688Z,21.00
2019-06-26T23:13:51.897Z,20.80
2019-06-26T23:16:21.916Z,20.70
2019-06-26T23:18:48.532Z,20.80
2019-06-26T23:21:15.145Z,20.80
2019-06-26T23:23:41.833Z,20.70
2019-06-26T23:26:22.916Z,20.70
2019-06-26T23:28:40.432Z,20.60
2019-06-26T23:31:10.952Z,20.60
2019-06-26T23:33:40.349Z,20.70
2019-06-26T23:36:14.735Z,20.60
2019-06-26T23:38:41.940Z,20.50
2019-06-26T23:41:11.092Z,20.70
2019-06-26T23:43:38.570Z,20.80
2019-06-26T23:46:06.482Z,20.90
2019-06-26T23:48:34.090Z,20.90
2019-06-26T23:51:01.616Z,20.70
2019-06-26T23:53:28.985Z,20.70
2019-06-26T23:55:57.278Z,20.60
2019-06-26T23:58:31.817Z,20.60
